sensor_id;sensor_type;location;lat;lon;timestamp;P1;durP1;ratioP1;P2;durP2;ratioP2
62052;SDS011;48300;52.902;6.534;2022-09-29T00:02:02;2.55;;;1.80;;
62052;SDS011;48300;52.902;6.534;2022-09-29T00:04:28;2.10;;;1.58;;
62052;SDS011;48300;52.902;6.534;2022-09-29T00:06:54;4.50;;;2.05;;
62052;SDS011;48300;52.902;6.534;2022-09-29T00:09:20;3.65;;;1.67;;
62052;SDS011;48300;52.902;6.534;2022-09-29T00:11:46;2.85;;;1.63;;
62052;SDS011;48300;52.902;6.534;2022-09-29T00:14:12;4.63;;;2.15;;
62052;SDS011;48300;52.902;6.534;2022-09-29T00:16:38;4.22;;;2.45;;
62052;SDS011;48300;52.902;6.534;2022-09-29T00:19:05;3.88;;;2.30;;
62052;SDS011;48300;52.902;6.534;2022-09-29T00:21:31;4.20;;;2.40;;
62052;SDS011;48300;52.902;6.534;2022-09-29T00:23:59;10.45;;;2.83;;
62052;SDS011;48300;52.902;6.534;2022-09-29T00:26:25;5.30;;;2.83;;
62052;SDS011;48300;52.902;6.534;2022-09-29T00:28:52;4.28;;;2.50;;
62052;SDS011;48300;52.902;6.534;2022-09-29T00:31:21;3.70;;;2.40;;
62052;SDS011;48300;52.902;6.534;2022-09-29T00:33:47;5.00;;;2.45;;
62052;SDS011;48300;52.902;6.534;2022-09-29T00:36:15;4.53;;;2.60;;
62052;SDS011;48300;52.902;6.534;2022-09-29T00:38:42;5.93;;;2.33;;
62052;SDS011;48300;52.902;6.534;2022-09-29T00:41:16;3.63;;;2.05;;
62052;SDS011;48300;52.902;6.534;2022-09-29T00:43:59;4.15;;;2.53;;
62052;SDS011;48300;52.902;6.534;2022-09-29T00:46:29;3.25;;;1.60;;
62052;SDS011;48300;52.902;6.534;2022-09-29T00:48:58;4.50;;;1.75;;
62052;SDS011;48300;52.902;6.534;2022-09-29T00:51:25;6.70;;;2.30;;
62052;SDS011;48300;52.902;6.534;2022-09-29T00:53:52;28.30;;;3.53;;
62052;SDS011;48300;52.902;6.534;2022-09-29T00:56:18;27.90;;;2.83;;
62052;SDS011;48300;52.902;6.534;2022-09-29T00:58:47;10.75;;;2.40;;
62052;SDS011;48300;52.902;6.534;2022-09-29T01:01:19;6.15;;;2.28;;
62052;SDS011;48300;52.902;6.534;2022-09-29T01:03:45;3.05;;;1.35;;
62052;SDS011;48300;52.902;6.534;2022-09-29T01:06:14;2.15;;;1.48;;
62052;SDS011;48300;52.902;6.534;2022-09-29T01:08:44;2.28;;;1.45;;
62052;SDS011;48300;52.902;6.534;2022-09-29T01:11:12;4.00;;;1.70;;
62052;SDS011;48300;52.902;6.534;2022-09-29T01:13:39;2.20;;;1.20;;
62052;SDS011;48300;52.902;6.534;2022-09-29T01:16:06;3.05;;;1.00;;
62052;SDS011;48300;52.902;6.534;2022-09-29T01:18:32;1.95;;;1.50;;
62052;SDS011;48300;52.902;6.534;2022-09-29T01:21:02;2.28;;;1.30;;
62052;SDS011;48300;52.902;6.534;2022-09-29T01:23:37;2.08;;;1.50;;
62052;SDS011;48300;52.902;6.534;2022-09-29T01:28:46;5.55;;;1.95;;
62052;SDS011;48300;52.902;6.534;2022-09-29T01:31:18;9.15;;;1.98;;
62052;SDS011;48300;52.902;6.534;2022-09-29T01:33:53;1.90;;;1.20;;
62052;SDS011;48300;52.902;6.534;2022-09-29T01:36:29;3.08;;;1.20;;
62052;SDS011;48300;52.902;6.534;2022-09-29T01:39:13;2.78;;;1.75;;
62052;SDS011;48300;52.902;6.534;2022-09-29T01:46:35;6.07;;;2.13;;
62052;SDS011;48300;52.902;6.534;2022-09-29T01:51:30;3.53;;;1.70;;
62052;SDS011;48300;52.902;6.534;2022-09-29T01:54:03;2.67;;;1.85;;
62052;SDS011;48300;52.902;6.534;2022-09-29T01:56:32;5.55;;;1.98;;
62052;SDS011;48300;52.902;6.534;2022-09-29T01:59:03;30.60;;;3.35;;
62052;SDS011;48300;52.902;6.534;2022-09-29T02:01:31;27.95;;;2.88;;
62052;SDS011;48300;52.902;6.534;2022-09-29T02:04:01;10.25;;;2.47;;
62052;SDS011;48300;52.902;6.534;2022-09-29T02:06:31;5.15;;;1.88;;
62052;SDS011;48300;52.902;6.534;2022-09-29T02:09:01;18.30;;;2.80;;
62052;SDS011;48300;52.902;6.534;2022-09-29T02:11:28;24.05;;;2.65;;
62052;SDS011;48300;52.902;6.534;2022-09-29T02:16:23;12.30;;;2.28;;
62052;SDS011;48300;52.902;6.534;2022-09-29T02:18:52;23.95;;;2.90;;
62052;SDS011;48300;52.902;6.534;2022-09-29T02:21:18;39.33;;;3.95;;
62052;SDS011;48300;52.902;6.534;2022-09-29T02:23:45;24.90;;;3.40;;
62052;SDS011;48300;52.902;6.534;2022-09-29T02:26:11;38.53;;;4.13;;
62052;SDS011;48300;52.902;6.534;2022-09-29T02:28:37;35.70;;;3.10;;
62052;SDS011;48300;52.902;6.534;2022-09-29T02:31:04;27.67;;;3.42;;
62052;SDS011;48300;52.902;6.534;2022-09-29T02:33:30;32.40;;;2.70;;
62052;SDS011;48300;52.902;6.534;2022-09-29T02:36:01;11.63;;;1.95;;
62052;SDS011;48300;52.902;6.534;2022-09-29T02:38:43;17.75;;;2.40;;
62052;SDS011;48300;52.902;6.534;2022-09-29T02:41:24;3.63;;;2.25;;
62052;SDS011;48300;52.902;6.534;2022-09-29T02:46:24;13.02;;;2.50;;
62052;SDS011;48300;52.902;6.534;2022-09-29T02:49:07;18.00;;;2.70;;
62052;SDS011;48300;52.902;6.534;2022-09-29T02:51:40;6.72;;;2.47;;
62052;SDS011;48300;52.902;6.534;2022-09-29T02:56:43;7.18;;;2.80;;
62052;SDS011;48300;52.902;6.534;2022-09-29T02:59:14;7.70;;;2.50;;
62052;SDS011;48300;52.902;6.534;2022-09-29T03:01:47;18.92;;;2.83;;
62052;SDS011;48300;52.902;6.534;2022-09-29T03:04:13;21.35;;;2.90;;
62052;SDS011;48300;52.902;6.534;2022-09-29T03:06:39;25.60;;;3.00;;
62052;SDS011;48300;52.902;6.534;2022-09-29T03:09:05;23.05;;;2.78;;
62052;SDS011;48300;52.902;6.534;2022-09-29T03:11:32;27.10;;;2.88;;
62052;SDS011;48300;52.902;6.534;2022-09-29T03:13:58;16.92;;;2.47;;
62052;SDS011;48300;52.902;6.534;2022-09-29T03:16:24;60.72;;;4.82;;
62052;SDS011;48300;52.902;6.534;2022-09-29T03:18:51;22.42;;;3.38;;
62052;SDS011;48300;52.902;6.534;2022-09-29T03:21:17;40.80;;;3.47;;
62052;SDS011;48300;52.902;6.534;2022-09-29T03:23:43;23.30;;;3.85;;
62052;SDS011;48300;52.902;6.534;2022-09-29T03:26:09;21.77;;;4.00;;
62052;SDS011;48300;52.902;6.534;2022-09-29T03:28:35;53.85;;;4.13;;
62052;SDS011;48300;52.902;6.534;2022-09-29T03:31:04;23.30;;;3.10;;
62052;SDS011;48300;52.902;6.534;2022-09-29T03:35:56;17.08;;;2.50;;
62052;SDS011;48300;52.902;6.534;2022-09-29T03:38:23;9.00;;;2.50;;
62052;SDS011;48300;52.902;6.534;2022-09-29T03:40:49;2.92;;;2.45;;
62052;SDS011;48300;52.902;6.534;2022-09-29T03:43:15;15.85;;;2.85;;
62052;SDS011;48300;52.902;6.534;2022-09-29T03:45:48;34.40;;;4.13;;
62052;SDS011;48300;52.902;6.534;2022-09-29T03:48:14;45.40;;;3.97;;
62052;SDS011;48300;52.902;6.534;2022-09-29T03:50:40;23.60;;;3.25;;
62052;SDS011;48300;52.902;6.534;2022-09-29T03:53:07;55.33;;;6.00;;
62052;SDS011;48300;52.902;6.534;2022-09-29T03:55:33;61.17;;;4.80;;
62052;SDS011;48300;52.902;6.534;2022-09-29T03:57:59;36.78;;;3.75;;
62052;SDS011;48300;52.902;6.534;2022-09-29T04:00:25;47.85;;;5.63;;
62052;SDS011;48300;52.902;6.534;2022-09-29T04:02:53;67.15;;;4.45;;
62052;SDS011;48300;52.902;6.534;2022-09-29T04:05:19;75.35;;;4.78;;
62052;SDS011;48300;52.902;6.534;2022-09-29T04:07:46;50.92;;;4.32;;
62052;SDS011;48300;52.902;6.534;2022-09-29T04:10:12;62.35;;;5.43;;
62052;SDS011;48300;52.902;6.534;2022-09-29T04:12:38;40.58;;;3.75;;
62052;SDS011;48300;52.902;6.534;2022-09-29T04:15:05;42.78;;;4.00;;
62052;SDS011;48300;52.902;6.534;2022-09-29T04:17:31;37.83;;;6.35;;
62052;SDS011;48300;52.902;6.534;2022-09-29T04:19:57;36.38;;;4.05;;
62052;SDS011;48300;52.902;6.534;2022-09-29T04:22:23;61.30;;;6.22;;
62052;SDS011;48300;52.902;6.534;2022-09-29T04:24:49;22.08;;;3.35;;
62052;SDS011;48300;52.902;6.534;2022-09-29T04:27:16;25.08;;;4.10;;
62052;SDS011;48300;52.902;6.534;2022-09-29T04:29:43;12.80;;;3.10;;
62052;SDS011;48300;52.902;6.534;2022-09-29T04:32:09;26.83;;;3.97;;
62052;SDS011;48300;52.902;6.534;2022-09-29T04:34:35;10.90;;;2.97;;
62052;SDS011;48300;52.902;6.534;2022-09-29T04:37:01;16.27;;;3.60;;
62052;SDS011;48300;52.902;6.534;2022-09-29T04:39:28;20.63;;;3.88;;
62052;SDS011;48300;52.902;6.534;2022-09-29T04:41:54;9.30;;;3.00;;
62052;SDS011;48300;52.902;6.534;2022-09-29T04:44:20;9.52;;;2.72;;
62052;SDS011;48300;52.902;6.534;2022-09-29T04:46:49;8.20;;;3.20;;
62052;SDS011;48300;52.902;6.534;2022-09-29T04:49:16;11.88;;;3.13;;
62052;SDS011;48300;52.902;6.534;2022-09-29T04:51:42;9.85;;;3.22;;
62052;SDS011;48300;52.902;6.534;2022-09-29T04:54:08;5.70;;;3.20;;
62052;SDS011;48300;52.902;6.534;2022-09-29T04:56:34;10.43;;;3.50;;
62052;SDS011;48300;52.902;6.534;2022-09-29T04:59:00;9.35;;;3.10;;
62052;SDS011;48300;52.902;6.534;2022-09-29T05:01:27;12.05;;;2.97;;
62052;SDS011;48300;52.902;6.534;2022-09-29T05:03:54;11.90;;;3.83;;
62052;SDS011;48300;52.902;6.534;2022-09-29T05:06:20;6.10;;;2.83;;
62052;SDS011;48300;52.902;6.534;2022-09-29T05:08:46;17.40;;;3.97;;
62052;SDS011;48300;52.902;6.534;2022-09-29T05:11:13;17.48;;;3.70;;
62052;SDS011;48300;52.902;6.534;2022-09-29T05:13:39;35.65;;;5.72;;
62052;SDS011;48300;52.902;6.534;2022-09-29T05:16:05;25.25;;;4.80;;
62052;SDS011;48300;52.902;6.534;2022-09-29T05:18:32;23.55;;;4.47;;
62052;SDS011;48300;52.902;6.534;2022-09-29T05:21:04;30.52;;;4.85;;
62052;SDS011;48300;52.902;6.534;2022-09-29T05:23:31;23.60;;;4.15;;
62052;SDS011;48300;52.902;6.534;2022-09-29T05:26:04;22.17;;;4.38;;
62052;SDS011;48300;52.902;6.534;2022-09-29T05:28:31;42.92;;;4.80;;
62052;SDS011;48300;52.902;6.534;2022-09-29T05:31:04;20.58;;;4.43;;
62052;SDS011;48300;52.902;6.534;2022-09-29T05:33:30;10.98;;;3.58;;
62052;SDS011;48300;52.902;6.534;2022-09-29T05:35:57;16.08;;;3.83;;
62052;SDS011;48300;52.902;6.534;2022-09-29T05:38:23;22.42;;;4.32;;
62052;SDS011;48300;52.902;6.534;2022-09-29T05:40:49;8.80;;;3.78;;
62052;SDS011;48300;52.902;6.534;2022-09-29T05:43:16;11.82;;;3.38;;
62052;SDS011;48300;52.902;6.534;2022-09-29T05:45:42;5.90;;;3.13;;
62052;SDS011;48300;52.902;6.534;2022-09-29T05:48:09;7.63;;;3.58;;
62052;SDS011;48300;52.902;6.534;2022-09-29T05:50:35;5.70;;;3.08;;
62052;SDS011;48300;52.902;6.534;2022-09-29T05:53:07;5.45;;;2.88;;
62052;SDS011;48300;52.902;6.534;2022-09-29T05:55:34;4.40;;;3.25;;
62052;SDS011;48300;52.902;6.534;2022-09-29T05:58:00;4.30;;;3.42;;
62052;SDS011;48300;52.902;6.534;2022-09-29T06:00:26;7.97;;;3.53;;
62052;SDS011;48300;52.902;6.534;2022-09-29T06:05:21;6.57;;;3.25;;
62052;SDS011;48300;52.902;6.534;2022-09-29T06:07:47;18.23;;;3.80;;
62052;SDS011;48300;52.902;6.534;2022-09-29T06:10:13;12.38;;;3.35;;
62052;SDS011;48300;52.902;6.534;2022-09-29T06:12:40;10.30;;;3.80;;
62052;SDS011;48300;52.902;6.534;2022-09-29T06:15:06;12.75;;;4.07;;
62052;SDS011;48300;52.902;6.534;2022-09-29T06:17:32;13.77;;;3.78;;
62052;SDS011;48300;52.902;6.534;2022-09-29T06:19:59;9.13;;;4.07;;
62052;SDS011;48300;52.902;6.534;2022-09-29T06:22:25;19.80;;;4.05;;
62052;SDS011;48300;52.902;6.534;2022-09-29T06:24:52;16.25;;;4.10;;
62052;SDS011;48300;52.902;6.534;2022-09-29T06:27:18;15.95;;;4.50;;
62052;SDS011;48300;52.902;6.534;2022-09-29T06:29:45;27.33;;;5.03;;
62052;SDS011;48300;52.902;6.534;2022-09-29T06:32:11;15.73;;;5.05;;
62052;SDS011;48300;52.902;6.534;2022-09-29T06:34:37;21.98;;;4.72;;
62052;SDS011;48300;52.902;6.534;2022-09-29T06:37:23;10.48;;;4.70;;
62052;SDS011;48300;52.902;6.534;2022-09-29T06:39:59;8.25;;;4.40;;
62052;SDS011;48300;52.902;6.534;2022-09-29T06:42:25;7.60;;;4.85;;
62052;SDS011;48300;52.902;6.534;2022-09-29T06:44:51;8.90;;;5.53;;
62052;SDS011;48300;52.902;6.534;2022-09-29T06:47:19;10.30;;;5.28;;
62052;SDS011;48300;52.902;6.534;2022-09-29T06:49:45;7.93;;;5.22;;
62052;SDS011;48300;52.902;6.534;2022-09-29T06:52:13;11.48;;;5.85;;
62052;SDS011;48300;52.902;6.534;2022-09-29T06:54:39;14.70;;;6.40;;
62052;SDS011;48300;52.902;6.534;2022-09-29T06:57:05;10.10;;;7.15;;
62052;SDS011;48300;52.902;6.534;2022-09-29T06:59:31;10.55;;;6.57;;
62052;SDS011;48300;52.902;6.534;2022-09-29T07:01:57;11.00;;;6.10;;
62052;SDS011;48300;52.902;6.534;2022-09-29T07:04:23;14.02;;;7.30;;
62052;SDS011;48300;52.902;6.534;2022-09-29T07:06:50;16.50;;;7.53;;
62052;SDS011;48300;52.902;6.534;2022-09-29T07:09:16;10.85;;;7.55;;
62052;SDS011;48300;52.902;6.534;2022-09-29T07:11:44;14.80;;;7.15;;
62052;SDS011;48300;52.902;6.534;2022-09-29T07:14:12;15.77;;;8.68;;
62052;SDS011;48300;52.902;6.534;2022-09-29T07:16:38;31.48;;;11.70;;
62052;SDS011;48300;52.902;6.534;2022-09-29T07:19:04;15.45;;;8.45;;
62052;SDS011;48300;52.902;6.534;2022-09-29T07:21:31;17.42;;;9.35;;
62052;SDS011;48300;52.902;6.534;2022-09-29T07:23:57;18.35;;;8.25;;
62052;SDS011;48300;52.902;6.534;2022-09-29T07:26:23;18.92;;;9.18;;
62052;SDS011;48300;52.902;6.534;2022-09-29T07:28:49;13.68;;;8.57;;
62052;SDS011;48300;52.902;6.534;2022-09-29T07:31:16;15.23;;;8.85;;
62052;SDS011;48300;52.902;6.534;2022-09-29T07:33:43;17.38;;;9.77;;
62052;SDS011;48300;52.902;6.534;2022-09-29T07:36:10;18.98;;;8.57;;
62052;SDS011;48300;52.902;6.534;2022-09-29T07:38:36;18.67;;;8.50;;
62052;SDS011;48300;52.902;6.534;2022-09-29T07:41:03;15.18;;;9.02;;
62052;SDS011;48300;52.902;6.534;2022-09-29T07:43:29;14.80;;;8.32;;
62052;SDS011;48300;52.902;6.534;2022-09-29T07:45:56;22.70;;;9.65;;
62052;SDS011;48300;52.902;6.534;2022-09-29T07:48:24;17.48;;;9.43;;
62052;SDS011;48300;52.902;6.534;2022-09-29T07:50:50;17.70;;;9.60;;
62052;SDS011;48300;52.902;6.534;2022-09-29T07:53:17;17.88;;;9.40;;
62052;SDS011;48300;52.902;6.534;2022-09-29T07:55:43;18.45;;;10.15;;
62052;SDS011;48300;52.902;6.534;2022-09-29T07:58:09;18.23;;;9.32;;
62052;SDS011;48300;52.902;6.534;2022-09-29T08:00:35;15.18;;;8.60;;
62052;SDS011;48300;52.902;6.534;2022-09-29T08:03:02;15.32;;;9.57;;
62052;SDS011;48300;52.902;6.534;2022-09-29T08:05:29;15.35;;;9.85;;
62052;SDS011;48300;52.902;6.534;2022-09-29T08:07:58;20.63;;;9.98;;
62052;SDS011;48300;52.902;6.534;2022-09-29T08:10:25;17.20;;;9.75;;
62052;SDS011;48300;52.902;6.534;2022-09-29T08:12:52;20.73;;;10.60;;
62052;SDS011;48300;52.902;6.534;2022-09-29T08:15:18;18.98;;;10.65;;
62052;SDS011;48300;52.902;6.534;2022-09-29T08:17:45;16.75;;;10.35;;
62052;SDS011;48300;52.902;6.534;2022-09-29T08:20:11;18.55;;;11.20;;
62052;SDS011;48300;52.902;6.534;2022-09-29T08:22:37;18.45;;;10.27;;
62052;SDS011;48300;52.902;6.534;2022-09-29T08:25:03;17.20;;;10.20;;
62052;SDS011;48300;52.902;6.534;2022-09-29T08:27:30;21.30;;;10.68;;
62052;SDS011;48300;52.902;6.534;2022-09-29T08:29:57;16.40;;;10.18;;
62052;SDS011;48300;52.902;6.534;2022-09-29T08:32:23;16.75;;;8.95;;
62052;SDS011;48300;52.902;6.534;2022-09-29T08:34:49;17.77;;;10.02;;
62052;SDS011;48300;52.902;6.534;2022-09-29T08:37:15;15.18;;;9.38;;
62052;SDS011;48300;52.902;6.534;2022-09-29T08:39:42;13.80;;;8.80;;
62052;SDS011;48300;52.902;6.534;2022-09-29T08:42:20;15.88;;;9.27;;
62052;SDS011;48300;52.902;6.534;2022-09-29T08:44:50;13.40;;;8.27;;
62052;SDS011;48300;52.902;6.534;2022-09-29T08:47:24;14.80;;;9.55;;
62052;SDS011;48300;52.902;6.534;2022-09-29T08:49:56;15.73;;;8.70;;
62052;SDS011;48300;52.902;6.534;2022-09-29T08:52:23;16.38;;;8.98;;
62052;SDS011;48300;52.902;6.534;2022-09-29T08:54:54;15.82;;;9.25;;
62052;SDS011;48300;52.902;6.534;2022-09-29T08:57:21;14.60;;;8.43;;
62052;SDS011;48300;52.902;6.534;2022-09-29T08:59:51;15.00;;;8.25;;
62052;SDS011;48300;52.902;6.534;2022-09-29T09:04:58;15.85;;;8.07;;
62052;SDS011;48300;52.902;6.534;2022-09-29T09:10:02;15.38;;;7.68;;
62052;SDS011;48300;52.902;6.534;2022-09-29T09:15:17;12.45;;;7.47;;
62052;SDS011;48300;52.902;6.534;2022-09-29T09:20:32;13.50;;;8.25;;
62052;SDS011;48300;52.902;6.534;2022-09-29T09:23:05;14.90;;;7.82;;
62052;SDS011;48300;52.902;6.534;2022-09-29T09:25:34;14.18;;;8.60;;
62052;SDS011;48300;52.902;6.534;2022-09-29T09:28:03;18.05;;;9.00;;
62052;SDS011;48300;52.902;6.534;2022-09-29T09:30:34;13.60;;;7.95;;
62052;SDS011;48300;52.902;6.534;2022-09-29T09:33:03;11.68;;;7.43;;
62052;SDS011;48300;52.902;6.534;2022-09-29T09:35:36;15.40;;;8.18;;
62052;SDS011;48300;52.902;6.534;2022-09-29T09:38:07;12.73;;;8.23;;
62052;SDS011;48300;52.902;6.534;2022-09-29T09:40:39;12.02;;;8.43;;
62052;SDS011;48300;52.902;6.534;2022-09-29T09:43:09;15.25;;;8.25;;
62052;SDS011;48300;52.902;6.534;2022-09-29T09:45:36;12.45;;;6.68;;
62052;SDS011;48300;52.902;6.534;2022-09-29T09:48:08;10.65;;;6.78;;
62052;SDS011;48300;52.902;6.534;2022-09-29T09:50:38;11.00;;;6.60;;
62052;SDS011;48300;52.902;6.534;2022-09-29T09:53:14;9.10;;;6.18;;
62052;SDS011;48300;52.902;6.534;2022-09-29T09:55:42;11.07;;;6.53;;
62052;SDS011;48300;52.902;6.534;2022-09-29T10:00:54;9.05;;;5.55;;
62052;SDS011;48300;52.902;6.534;2022-09-29T10:03:22;9.02;;;5.18;;
62052;SDS011;48300;52.902;6.534;2022-09-29T10:05:48;7.53;;;4.80;;
62052;SDS011;48300;52.902;6.534;2022-09-29T10:08:25;8.57;;;5.13;;
62052;SDS011;48300;52.902;6.534;2022-09-29T10:10:52;9.20;;;4.67;;
62052;SDS011;48300;52.902;6.534;2022-09-29T10:13:19;8.15;;;4.95;;
62052;SDS011;48300;52.902;6.534;2022-09-29T10:15:49;9.57;;;5.63;;
62052;SDS011;48300;52.902;6.534;2022-09-29T10:18:28;12.30;;;5.25;;
62052;SDS011;48300;52.902;6.534;2022-09-29T10:20:56;10.32;;;5.75;;
62052;SDS011;48300;52.902;6.534;2022-09-29T10:25:58;9.57;;;5.05;;
62052;SDS011;48300;52.902;6.534;2022-09-29T10:28:25;8.88;;;5.25;;
62052;SDS011;48300;52.902;6.534;2022-09-29T10:30:53;7.10;;;4.35;;
62052;SDS011;48300;52.902;6.534;2022-09-29T10:33:20;7.55;;;4.93;;
62052;SDS011;48300;52.902;6.534;2022-09-29T10:35:48;8.45;;;5.28;;
62052;SDS011;48300;52.902;6.534;2022-09-29T10:38:17;6.85;;;4.60;;
62052;SDS011;48300;52.902;6.534;2022-09-29T10:40:52;8.57;;;3.65;;
62052;SDS011;48300;52.902;6.534;2022-09-29T10:43:25;10.65;;;3.85;;
62052;SDS011;48300;52.902;6.534;2022-09-29T10:45:52;6.88;;;3.92;;
62052;SDS011;48300;52.902;6.534;2022-09-29T10:48:22;5.95;;;3.95;;
62052;SDS011;48300;52.902;6.534;2022-09-29T10:50:50;8.00;;;3.28;;
62052;SDS011;48300;52.902;6.534;2022-09-29T10:53:20;7.00;;;3.80;;
62052;SDS011;48300;52.902;6.534;2022-09-29T10:55:48;7.07;;;4.20;;
62052;SDS011;48300;52.902;6.534;2022-09-29T11:00:41;6.25;;;3.40;;
62052;SDS011;48300;52.902;6.534;2022-09-29T11:05:47;8.20;;;3.60;;
62052;SDS011;48300;52.902;6.534;2022-09-29T11:08:16;10.68;;;3.97;;
62052;SDS011;48300;52.902;6.534;2022-09-29T11:10:43;8.47;;;4.37;;
62052;SDS011;48300;52.902;6.534;2022-09-29T11:15:41;4.50;;;3.38;;
62052;SDS011;48300;52.902;6.534;2022-09-29T11:18:25;4.93;;;3.40;;
62052;SDS011;48300;52.902;6.534;2022-09-29T11:20:59;3.75;;;2.80;;
62052;SDS011;48300;52.902;6.534;2022-09-29T11:23:30;6.10;;;3.13;;
62052;SDS011;48300;52.902;6.534;2022-09-29T11:26:10;6.15;;;3.63;;
62052;SDS011;48300;52.902;6.534;2022-09-29T11:28:40;6.50;;;4.03;;
62052;SDS011;48300;52.902;6.534;2022-09-29T11:33:48;5.18;;;3.10;;
62052;SDS011;48300;52.902;6.534;2022-09-29T11:36:21;4.43;;;2.83;;
62052;SDS011;48300;52.902;6.534;2022-09-29T11:39:14;3.40;;;1.88;;
62052;SDS011;48300;52.902;6.534;2022-09-29T11:41:40;4.17;;;2.87;;
62052;SDS011;48300;52.902;6.534;2022-09-29T11:51:58;6.30;;;2.92;;
62052;SDS011;48300;52.902;6.534;2022-09-29T11:57:01;4.35;;;2.67;;
62052;SDS011;48300;52.902;6.534;2022-09-29T12:04:49;5.47;;;2.50;;
62052;SDS011;48300;52.902;6.534;2022-09-29T12:09:53;6.00;;;2.72;;
62052;SDS011;48300;52.902;6.534;2022-09-29T12:12:24;3.67;;;2.38;;
62052;SDS011;48300;52.902;6.534;2022-09-29T12:17:22;4.03;;;2.28;;
62052;SDS011;48300;52.902;6.534;2022-09-29T12:19:55;6.63;;;3.25;;
62052;SDS011;48300;52.902;6.534;2022-09-29T12:22:25;3.75;;;2.55;;
62052;SDS011;48300;52.902;6.534;2022-09-29T12:24:53;2.80;;;2.08;;
62052;SDS011;48300;52.902;6.534;2022-09-29T12:27:22;3.30;;;2.10;;
62052;SDS011;48300;52.902;6.534;2022-09-29T12:29:58;3.80;;;2.03;;
62052;SDS011;48300;52.902;6.534;2022-09-29T12:32:28;3.78;;;2.15;;
62052;SDS011;48300;52.902;6.534;2022-09-29T12:34:58;4.28;;;1.88;;
62052;SDS011;48300;52.902;6.534;2022-09-29T12:37:27;3.58;;;1.80;;
62052;SDS011;48300;52.902;6.534;2022-09-29T12:40:05;2.40;;;1.70;;
62052;SDS011;48300;52.902;6.534;2022-09-29T12:45:05;4.97;;;1.85;;
62052;SDS011;48300;52.902;6.534;2022-09-29T12:47:44;3.78;;;1.83;;
62052;SDS011;48300;52.902;6.534;2022-09-29T12:50:16;3.53;;;2.10;;
62052;SDS011;48300;52.902;6.534;2022-09-29T12:52:55;2.53;;;1.60;;
62052;SDS011;48300;52.902;6.534;2022-09-29T12:55:25;3.67;;;1.50;;
62052;SDS011;48300;52.902;6.534;2022-09-29T12:57:55;2.58;;;1.50;;
62052;SDS011;48300;52.902;6.534;2022-09-29T13:00:24;3.60;;;1.67;;
62052;SDS011;48300;52.902;6.534;2022-09-29T13:02:59;3.03;;;1.85;;
62052;SDS011;48300;52.902;6.534;2022-09-29T13:05:33;3.25;;;1.83;;
62052;SDS011;48300;52.902;6.534;2022-09-29T13:13:16;3.08;;;1.90;;
62052;SDS011;48300;52.902;6.534;2022-09-29T13:15:54;2.88;;;1.52;;
62052;SDS011;48300;52.902;6.534;2022-09-29T13:28:51;5.82;;;1.35;;
62052;SDS011;48300;52.902;6.534;2022-09-29T13:31:20;3.80;;;1.35;;
62052;SDS011;48300;52.902;6.534;2022-09-29T13:33:47;2.90;;;1.25;;
62052;SDS011;48300;52.902;6.534;2022-09-29T13:36:21;1.05;;;0.75;;
62052;SDS011;48300;52.902;6.534;2022-09-29T13:38:52;2.25;;;0.70;;
62052;SDS011;48300;52.902;6.534;2022-09-29T13:46:24;1.83;;;0.55;;
62052;SDS011;48300;52.902;6.534;2022-09-29T13:48:51;2.60;;;1.60;;
62052;SDS011;48300;52.902;6.534;2022-09-29T13:51:20;2.37;;;1.00;;
62052;SDS011;48300;52.902;6.534;2022-09-29T13:53:47;2.58;;;1.08;;
62052;SDS011;48300;52.902;6.534;2022-09-29T13:56:33;1.58;;;0.63;;
62052;SDS011;48300;52.902;6.534;2022-09-29T13:58:59;4.32;;;0.68;;
62052;SDS011;48300;52.902;6.534;2022-09-29T14:01:29;2.67;;;0.68;;
62052;SDS011;48300;52.902;6.534;2022-09-29T14:03:56;1.48;;;0.70;;
62052;SDS011;48300;52.902;6.534;2022-09-29T14:06:23;1.08;;;0.50;;
62052;SDS011;48300;52.902;6.534;2022-09-29T14:08:53;3.08;;;0.50;;
62052;SDS011;48300;52.902;6.534;2022-09-29T14:13:48;0.77;;;0.50;;
62052;SDS011;48300;52.902;6.534;2022-09-29T14:16:24;1.08;;;0.50;;
62052;SDS011;48300;52.902;6.534;2022-09-29T14:18:52;1.35;;;0.50;;
62052;SDS011;48300;52.902;6.534;2022-09-29T14:24:39;1.58;;;0.50;;
62052;SDS011;48300;52.902;6.534;2022-09-29T14:26:51;1.67;;;0.57;;
62052;SDS011;48300;52.902;6.534;2022-09-29T14:29:22;3.28;;;0.68;;
62052;SDS011;48300;52.902;6.534;2022-09-29T14:31:50;0.82;;;0.43;;
62052;SDS011;48300;52.902;6.534;2022-09-29T14:34:18;2.00;;;0.70;;
62052;SDS011;48300;52.902;6.534;2022-09-29T14:39:13;2.35;;;0.50;;
62052;SDS011;48300;52.902;6.534;2022-09-29T14:41:40;1.25;;;0.60;;
62052;SDS011;48300;52.902;6.534;2022-09-29T14:44:07;1.35;;;0.60;;
62052;SDS011;48300;52.902;6.534;2022-09-29T14:52:35;1.08;;;0.40;;
62052;SDS011;48300;52.902;6.534;2022-09-29T14:55:11;1.63;;;0.70;;
62052;SDS011;48300;52.902;6.534;2022-09-29T14:57:45;1.63;;;0.70;;
62052;SDS011;48300;52.902;6.534;2022-09-29T15:00:15;2.13;;;0.68;;
62052;SDS011;48300;52.902;6.534;2022-09-29T15:02:48;4.10;;;0.60;;
62052;SDS011;48300;52.902;6.534;2022-09-29T15:05:24;1.42;;;0.70;;
62052;SDS011;48300;52.902;6.534;2022-09-29T15:07:51;1.15;;;0.50;;
62052;SDS011;48300;52.902;6.534;2022-09-29T15:10:22;2.00;;;0.60;;
62052;SDS011;48300;52.902;6.534;2022-09-29T15:12:49;6.55;;;0.70;;
62052;SDS011;48300;52.902;6.534;2022-09-29T15:15:29;1.92;;;0.50;;
62052;SDS011;48300;52.902;6.534;2022-09-29T15:17:59;1.27;;;0.60;;
62052;SDS011;48300;52.902;6.534;2022-09-29T15:20:31;1.70;;;0.60;;
62052;SDS011;48300;52.902;6.534;2022-09-29T15:23:10;4.13;;;0.50;;
62052;SDS011;48300;52.902;6.534;2022-09-29T15:25:43;1.20;;;0.55;;
62052;SDS011;48300;52.902;6.534;2022-09-29T15:28:13;3.05;;;1.15;;
62052;SDS011;48300;52.902;6.534;2022-09-29T15:30:40;2.00;;;1.00;;
62052;SDS011;48300;52.902;6.534;2022-09-29T15:33:12;2.90;;;0.88;;
62052;SDS011;48300;52.902;6.534;2022-09-29T15:35:41;1.77;;;1.10;;
62052;SDS011;48300;52.902;6.534;2022-09-29T15:40:35;3.10;;;0.85;;
62052;SDS011;48300;52.902;6.534;2022-09-29T15:43:01;3.20;;;1.10;;
62052;SDS011;48300;52.902;6.534;2022-09-29T15:45:28;1.27;;;0.70;;
62052;SDS011;48300;52.902;6.534;2022-09-29T15:47:57;1.58;;;0.70;;
62052;SDS011;48300;52.902;6.534;2022-09-29T15:50:25;1.50;;;0.70;;
62052;SDS011;48300;52.902;6.534;2022-09-29T15:52:52;1.70;;;0.80;;
62052;SDS011;48300;52.902;6.534;2022-09-29T15:55:21;0.77;;;0.40;;
62052;SDS011;48300;52.902;6.534;2022-09-29T15:57:48;2.88;;;0.50;;
62052;SDS011;48300;52.902;6.534;2022-09-29T16:02:50;1.95;;;0.40;;
62052;SDS011;48300;52.902;6.534;2022-09-29T16:05:18;2.17;;;0.90;;
62052;SDS011;48300;52.902;6.534;2022-09-29T16:07:47;1.50;;;0.90;;
62052;SDS011;48300;52.902;6.534;2022-09-29T16:10:16;1.98;;;0.80;;
62052;SDS011;48300;52.902;6.534;2022-09-29T16:12:47;2.92;;;1.38;;
62052;SDS011;48300;52.902;6.534;2022-09-29T16:15:15;4.43;;;1.48;;
62052;SDS011;48300;52.902;6.534;2022-09-29T16:17:42;2.83;;;1.85;;
62052;SDS011;48300;52.902;6.534;2022-09-29T16:20:11;4.28;;;1.80;;
62052;SDS011;48300;52.902;6.534;2022-09-29T16:22:41;3.75;;;1.38;;
62052;SDS011;48300;52.902;6.534;2022-09-29T16:25:22;3.33;;;1.70;;
62052;SDS011;48300;52.902;6.534;2022-09-29T16:27:51;2.35;;;1.25;;
62052;SDS011;48300;52.902;6.534;2022-09-29T16:30:19;4.88;;;1.10;;
62052;SDS011;48300;52.902;6.534;2022-09-29T16:37:57;1.58;;;0.70;;
62052;SDS011;48300;52.902;6.534;2022-09-29T16:40:23;1.15;;;0.65;;
62052;SDS011;48300;52.902;6.534;2022-09-29T16:42:51;2.45;;;0.70;;
62052;SDS011;48300;52.902;6.534;2022-09-29T16:45:18;4.38;;;0.80;;
62052;SDS011;48300;52.902;6.534;2022-09-29T16:47:48;3.15;;;1.10;;